Time;durP1;ratioP1;P1;durP2;ratioP2;P2;SDS_P1;SDS_P2;PMS_P1;PMS_P2;Temp;Humidity;BMP_temperature;BMP_pressure;BME280_temperature;BME280_humidity;BME280_pressure;Samples;Min_cycle;Max_cycle;Signal;HPM_P1;HPM_P2
2022/01/09 00:00:56;;;;;;;15.02;5.80;;;;;;;0.45;80.09;98332.56;5033762;28;20453;-88
2022/01/09 00:03:24;;;;;;;16.95;5.60;;;;;;;0.51;79.21;98317.66;5040286;28;20047;-88
2022/01/09 00:05:59;;;;;;;15.73;5.88;;;;;;;0.59;79.05;98320.59;5027192;28;20106;-88
2022/01/09 00:08:26;;;;;;;9.05;4.75;;;;;;;0.67;78.51;98319.25;5026940;28;20041;-87
2022/01/09 00:10:56;;;;;;;13.23;5.03;;;;;;;0.79;77.98;98320.28;5031174;28;20038;-87
2022/01/09 00:13:29;;;;;;;11.52;5.10;;;;;;;0.91;77.36;98311.81;5015999;28;20048;-88
2022/01/09 00:15:55;;;;;;;10.93;3.83;;;;;;;1.00;76.33;98300.09;5038457;28;20022;-87
2022/01/09 00:18:20;;;;;;;9.85;3.40;;;;;;;1.09;75.96;98299.56;5028102;28;20037;-86
2022/01/09 00:20:46;;;;;;;8.65;2.90;;;;;;;1.17;74.96;98288.78;5040352;28;20450;-87
2022/01/09 00:23:15;;;;;;;8.68;3.40;;;;;;;1.27;74.34;98284.72;5023796;28;20033;-87
2022/01/09 00:25:41;;;;;;;;;;;;;;;1.32;73.72;98276.69;5027521;28;20045;-86
2022/01/09 00:28:06;;;;;;;9.88;2.97;;;;;;;1.39;73.22;98273.63;5030181;28;19920;-87
2022/01/09 00:30:31;;;;;;;10.40;3.00;;;;;;;1.49;72.74;98273.06;5030840;28;20095;-88
2022/01/09 00:32:57;;;;;;;12.30;2.72;;;;;;;1.52;72.25;98263.38;5029308;28;20068;-89
2022/01/09 00:35:27;;;;;;;10.57;3.25;;;;;;;1.55;72.48;98265.75;5036448;28;20061;-89
2022/01/09 00:37:53;;;;;;;10.23;3.13;;;;;;;1.56;72.10;98251.94;5025768;28;20050;-88
2022/01/09 00:40:19;;;;;;;7.97;2.97;;;;;;;1.61;71.97;98252.47;5014446;28;20436;-88
2022/01/09 00:42:44;;;;;;;7.72;3.03;;;;;;;1.62;71.93;98251.53;5016595;28;20028;-88
2022/01/09 00:45:40;;;;;;;13.77;3.90;;;;;;;1.68;71.80;98245.16;5027564;28;20371;-88
2022/01/09 00:48:13;;;;;;;10.23;3.72;;;;;;;1.67;72.06;98240.91;5022047;28;20068;-87
2022/01/09 00:50:43;;;;;;;6.43;3.15;;;;;;;1.68;71.95;98234.81;5030904;28;20041;-87
2022/01/09 00:53:09;;;;;;;8.77;3.55;;;;;;;1.68;71.72;98229.66;5017356;28;20490;-86
2022/01/09 00:55:37;;;;;;;11.25;2.92;;;;;;;1.66;72.08;98234.06;5017943;28;20050;-87
2022/01/09 00:58:02;;;;;;;10.82;3.10;;;;;;;1.64;72.41;98220.44;5017684;28;20046;-88
2022/01/09 01:00:30;;;;;;;10.23;3.53;;;;;;;1.66;71.51;98219.41;5027240;28;20044;-86
2022/01/09 01:02:56;;;;;;;7.15;3.15;;;;;;;1.65;71.74;98212.59;5020991;28;20033;-87
2022/01/09 01:05:21;;;;;;;11.00;3.00;;;;;;;1.64;71.69;98207.53;5026494;28;20045;-87
2022/01/09 01:07:47;;;;;;;7.28;3.05;;;;;;;1.63;71.81;98205.84;5024641;28;20127;-87
2022/01/09 01:10:15;;;;;;;6.90;3.00;;;;;;;1.65;71.58;98209.19;5012670;28;20037;-88
2022/01/09 01:12:40;;;;;;;7.67;2.57;;;;;;;1.69;71.80;98192.56;5041626;28;20029;-87
2022/01/09 01:15:07;;;;;;;14.45;3.53;;;;;;;1.66;71.90;98198.75;5016440;28;20056;-88
2022/01/09 01:17:33;;;;;;;9.35;3.53;;;;;;;1.68;71.71;98189.16;5020668;28;20169;-89
2022/01/09 01:20:01;;;;;;;15.48;4.13;;;;;;;1.73;71.85;98188.84;5033818;28;20107;-89
2022/01/09 01:22:28;;;;;;;9.15;3.63;;;;;;;1.70;71.88;98176.13;5020396;28;20029;-89
2022/01/09 01:24:56;;;;;;;6.93;3.17;;;;;;;1.72;71.93;98174.28;5020443;28;20022;-88
2022/01/09 01:27:23;;;;;;;8.10;3.08;;;;;;;1.72;71.98;98166.53;5022631;28;20025;-89
2022/01/09 01:29:49;;;;;;;8.18;3.38;;;;;;;1.72;71.91;98153.63;5008302;28;20030;-87
2022/01/09 01:32:17;;;;;;;9.25;3.20;;;;;;;1.71;71.96;98167.47;5016935;28;20041;-87
2022/01/09 01:34:42;;;;;;;7.60;3.17;;;;;;;1.73;71.95;98162.19;5023994;28;20038;-87
2022/01/09 01:37:08;;;;;;;9.13;3.47;;;;;;;1.66;72.41;98149.66;5022494;28;20036;-88
2022/01/09 01:39:33;;;;;;;13.30;4.03;;;;;;;1.66;72.67;98159.19;5018286;28;20505;-89
2022/01/09 01:41:59;;;;;;;10.27;3.47;;;;;;;1.58;72.99;98149.34;5023814;28;20026;-88
2022/01/09 01:44:24;;;;;;;7.18;3.17;;;;;;;1.60;73.31;98146.69;5016396;28;20425;-88
2022/01/09 01:46:50;;;;;;;9.82;3.25;;;;;;;1.53;73.97;98135.91;5021744;28;20044;-88
2022/01/09 01:49:15;;;;;;;15.88;3.55;;;;;;;1.49;73.90;98131.88;5019408;28;20049;-88
2022/01/09 01:51:45;;;;;;;7.15;2.78;;;;;;;1.41;74.29;98142.69;5034081;28;20022;-87
2022/01/09 01:54:12;;;;;;;;;;;;;;;1.36;74.43;98134.41;5032570;28;20284;-87
2022/01/09 01:56:40;;;;;;;8.05;3.17;;;;;;;1.33;74.80;98126.84;5017761;28;20024;-87
2022/01/09 01:59:06;;;;;;;14.80;4.05;;;;;;;1.28;75.26;98122.94;5047074;28;20030;-88
2022/01/09 02:01:43;;;;;;;11.95;3.10;;;;;;;1.32;75.16;98114.88;5031176;28;20089;-88
2022/01/09 02:04:11;;;;;;;11.13;3.22;;;;;;;1.29;75.18;98098.75;5023920;28;20040;-88
2022/01/09 02:06:37;;;;;;;8.98;3.17;;;;;;;1.29;75.19;98098.75;5030347;28;20394;-88
2022/01/09 02:09:27;;;;;;;6.97;2.80;;;;;;;1.25;75.49;98108.44;5023252;28;20045;-88
2022/01/09 02:12:01;;;;;;;7.65;3.25;;;;;;;1.20;75.80;98101.00;5032698;28;20496;-87
2022/01/09 02:14:29;;;;;;;9.13;2.90;;;;;;;1.23;76.11;98101.75;5025213;28;20034;-88
2022/01/09 02:17:00;;;;;;;8.23;2.30;;;;;;;1.18;76.26;98095.09;5026557;28;20132;-89
2022/01/09 02:19:28;;;;;;;8.43;2.60;;;;;;;1.19;76.41;98094.19;5030341;28;20029;-89
2022/01/09 02:21:55;;;;;;;9.10;2.80;;;;;;;1.17;76.60;98090.88;5030305;28;20462;-89
2022/01/09 02:24:23;;;;;;;6.50;2.75;;;;;;;1.13;76.41;98080.84;5032949;28;20112;-89
2022/01/09 02:26:50;;;;;;;7.90;3.10;;;;;;;1.11;76.65;98091.28;5030863;28;20056;-88
2022/01/09 02:29:16;;;;;;;7.25;2.95;;;;;;;1.12;76.25;98076.63;5047858;28;20663;-88
2022/01/09 02:31:42;;;;;;;5.97;2.67;;;;;;;1.12;76.21;98082.63;5029598;28;20037;-88
2022/01/09 02:34:09;;;;;;;6.90;2.70;;;;;;;1.10;76.23;98081.06;5032236;28;20576;-88
2022/01/09 02:36:51;;;;;;;6.72;2.58;;;;;;;1.08;76.33;98073.41;5023767;28;20072;-89
2022/01/09 02:39:17;;;;;;;10.80;3.60;;;;;;;1.08;76.50;98067.44;5031891;28;20049;-88
2022/01/09 02:41:45;;;;;;;8.25;2.58;;;;;;;1.04;76.63;98060.78;5038142;28;20037;-88
2022/01/09 02:44:11;;;;;;;7.53;2.83;;;;;;;1.01;76.99;98050.69;5027424;28;20412;-88
2022/01/09 02:47:01;;;;;;;16.08;3.30;;;;;;;1.01;77.20;98050.69;5025250;28;20091;-88
2022/01/09 02:49:31;;;;;;;8.40;3.65;;;;;;;1.01;77.28;98038.63;5036107;28;20129;-88
2022/01/09 02:52:09;;;;;;;8.15;2.42;;;;;;;1.00;77.34;98039.50;5033626;28;20493;-88
2022/01/09 02:57:21;;;;;;;8.32;3.30;;;;;;;0.95;77.92;98026.91;5010961;28;20081;-88
2022/01/09 02:59:47;;;;;;;8.27;2.50;;;;;;;0.95;77.50;98026.91;5048594;28;20037;-88
2022/01/09 03:02:15;;;;;;;7.10;2.78;;;;;;;0.96;77.73;98025.16;5033064;28;20113;-88
2022/01/09 03:04:40;;;;;;;7.63;3.15;;;;;;;0.96;77.58;98025.16;5032287;28;20045;-88
2022/01/09 03:07:11;;;;;;;6.53;2.63;;;;;;;0.97;78.15;98021.69;5018354;28;20074;-87
2022/01/09 03:09:37;;;;;;;8.05;3.42;;;;;;;0.96;77.90;98015.69;5036978;28;20029;-89
2022/01/09 03:12:02;;;;;;;9.85;3.30;;;;;;;0.98;78.07;98012.19;5037925;28;20522;-89
2022/01/09 03:14:28;;;;;;;6.90;3.03;;;;;;;1.00;77.99;98003.41;5036102;28;20048;-88
2022/01/09 03:16:53;;;;;;;9.32;3.38;;;;;;;1.02;78.32;97998.97;5016842;28;20042;-89
2022/01/09 03:19:19;;;;;;;6.13;2.70;;;;;;;1.01;77.90;97992.19;5023580;28;20034;-88
2022/01/09 03:21:44;;;;;;;7.65;2.92;;;;;;;1.04;77.97;97991.97;5025751;28;20108;-88
2022/01/09 03:24:12;;;;;;;9.38;3.88;;;;;;;1.05;78.29;97991.03;5025433;28;20026;-87
2022/01/09 03:26:38;;;;;;;8.43;3.53;;;;;;;1.11;77.92;97988.06;5046064;28;20044;-88
2022/01/09 03:29:03;;;;;;;8.88;3.55;;;;;;;1.13;77.90;97986.19;5039803;28;20032;-88
2022/01/09 03:31:29;;;;;;;8.45;3.10;;;;;;;1.23;77.47;97983.03;5041485;28;20034;-89
2022/01/09 03:33:54;;;;;;;7.25;3.03;;;;;;;1.24;77.61;97977.75;5035289;28;20021;-89
2022/01/09 03:36:20;;;;;;;8.85;2.53;;;;;;;1.30;77.79;97979.09;5028103;28;20033;-88
2022/01/09 03:38:45;;;;;;;6.25;2.72;;;;;;;1.32;77.40;97990.16;5032255;28;20034;-87
2022/01/09 03:41:13;;;;;;;10.85;3.60;;;;;;;1.35;77.24;97987.38;5029450;28;20064;-88
2022/01/09 03:43:38;;;;;;;11.00;3.05;;;;;;;1.38;77.36;97980.25;5039550;28;20528;-88
2022/01/09 03:46:04;;;;;;;8.82;3.15;;;;;;;1.42;77.53;97984.28;5032604;28;20236;-88
2022/01/09 03:48:32;;;;;;;13.35;2.80;;;;;;;1.46;77.26;97982.31;5034237;28;20052;-88
2022/01/09 03:50:57;;;;;;;9.10;2.67;;;;;;;1.51;77.23;97974.25;5027479;28;20132;-88
2022/01/09 03:53:26;;;;;;;8.45;3.00;;;;;;;1.53;77.09;97975.81;5033569;28;20116;-89
2022/01/09 03:55:51;;;;;;;8.43;3.03;;;;;;;1.53;77.18;97967.25;5038289;28;20045;-88
2022/01/09 03:58:20;;;;;;;5.13;2.53;;;;;;;1.56;77.39;97972.19;5032529;28;20033;-89
2022/01/09 04:00:45;;;;;;;8.50;3.67;;;;;;;1.56;76.86;97962.69;5032827;28;20022;-89
2022/01/09 04:03:13;;;;;;;9.90;3.10;;;;;;;1.59;77.09;97953.91;5047616;28;20327;-88
2022/01/09 04:05:41;;;;;;;7.00;3.08;;;;;;;1.58;76.80;97950.50;5034402;28;20476;-88
2022/01/09 04:08:06;;;;;;;10.18;3.60;;;;;;;1.58;76.99;97942.75;5027099;28;20486;-88
2022/01/09 04:10:39;;;;;;;8.75;3.30;;;;;;;1.56;77.32;97944.63;5041587;28;20120;-88
2022/01/09 04:13:05;;;;;;;10.80;3.30;;;;;;;1.59;76.94;97941.81;5029763;28;20045;-88
2022/01/09 04:15:33;;;;;;;8.75;3.30;;;;;;;1.60;77.46;97950.41;5037632;28;20036;-87
2022/01/09 04:18:06;;;;;;;6.15;2.80;;;;;;;1.61;77.20;97947.72;5022243;28;20069;-88
2022/01/09 04:20:32;;;;;;;8.68;3.28;;;;;;;1.65;77.39;97945.75;5021268;28;20465;-88
2022/01/09 04:22:59;;;;;;;6.47;2.60;;;;;;;1.64;77.66;97937.19;5040891;28;20527;-89
2022/01/09 04:25:27;;;;;;;10.68;2.97;;;;;;;1.62;77.47;97939.03;5028305;28;20125;-88
2022/01/09 04:27:55;;;;;;;8.68;3.40;;;;;;;1.66;77.51;97943.03;5032681;28;20029;-88
2022/01/09 04:30:21;;;;;;;19.65;4.93;;;;;;;1.70;77.11;97928.16;5033831;28;20025;-88
2022/01/09 04:32:47;;;;;;;7.28;3.22;;;;;;;1.70;77.29;97925.59;5031431;28;20041;-89
2022/01/09 04:35:13;;;;;;;7.95;3.25;;;;;;;1.70;77.60;97928.16;5032874;28;20161;-89
2022/01/09 04:37:39;;;;;;;7.05;2.80;;;;;;;1.72;77.51;97925.50;5032998;28;20378;-88
2022/01/09 04:40:09;;;;;;;7.50;3.15;;;;;;;1.74;77.65;97931.38;5020496;28;20168;-88
2022/01/09 04:42:42;;;;;;;9.52;3.58;;;;;;;1.77;77.52;97926.81;5044102;28;20141;-89
2022/01/09 04:45:11;;;;;;;8.05;2.65;;;;;;;1.80;77.42;97926.59;5028129;28;20128;-88
2022/01/09 04:47:39;;;;;;;14.48;3.65;;;;;;;1.80;77.74;97924.03;5020653;28;20319;-88
2022/01/09 04:50:05;;;;;;;10.02;3.53;;;;;;;1.81;77.93;97923.09;5030863;28;20513;-88
2022/01/09 04:52:34;;;;;;;6.85;3.13;;;;;;;1.81;77.78;97922.25;5028437;28;20045;-88
2022/01/09 04:55:01;;;;;;;8.38;3.03;;;;;;;1.84;77.94;97917.72;5028363;28;20466;-87
2022/01/09 04:57:26;;;;;;;6.70;3.15;;;;;;;1.85;78.22;97911.59;5041389;28;20079;-87
2022/01/09 04:59:52;;;;;;;8.80;2.92;;;;;;;1.87;78.34;97925.25;5020938;28;20041;-88
2022/01/09 05:02:17;;;;;;;12.10;2.90;;;;;;;1.89;77.98;97913.06;5014111;28;20117;-88
2022/01/09 05:04:43;;;;;;;7.10;3.22;;;;;;;1.92;78.15;97912.00;5035943;28;20217;-87
2022/01/09 05:07:10;;;;;;;6.68;2.75;;;;;;;1.98;78.21;97914.16;5026187;28;20045;-87
2022/01/09 05:09:36;;;;;;;10.05;3.20;;;;;;;2.06;77.90;97909.28;5023423;28;20017;-88
2022/01/09 05:12:03;;;;;;;5.28;2.83;;;;;;;2.11;78.37;97914.97;5026885;28;20034;-89
2022/01/09 05:14:29;;;;;;;6.90;2.60;;;;;;;2.15;78.11;97908.66;5022985;28;20094;-88
2022/01/09 05:16:54;;;;;;;7.25;2.70;;;;;;;2.20;78.10;97912.66;5031765;28;20034;-88
2022/01/09 05:19:28;;;;;;;6.82;2.78;;;;;;;2.21;78.27;97915.13;5026749;28;20477;-88
2022/01/09 05:21:56;;;;;;;9.18;3.10;;;;;;;2.25;78.47;97906.22;5030481;28;20025;-88
2022/01/09 05:24:22;;;;;;;5.15;2.47;;;;;;;2.34;78.24;97922.84;5040451;28;20021;-88
2022/01/09 05:26:48;;;;;;;7.43;2.65;;;;;;;2.39;78.06;97920.75;5050443;28;20039;-88
2022/01/09 05:29:15;;;;;;;7.68;2.45;;;;;;;2.42;77.97;97913.59;5050450;28;20447;-88
2022/01/09 05:31:44;;;;;;;8.98;2.78;;;;;;;2.41;77.92;97911.94;5066904;28;20041;-87
2022/01/09 05:34:11;;;;;;;8.18;2.88;;;;;;;2.46;78.09;97909.03;5043573;28;20091;-89
2022/01/09 05:36:37;;;;;;;11.18;2.97;;;;;;;2.48;78.38;97912.31;5037235;28;20037;-88
2022/01/09 05:39:03;;;;;;;7.25;2.50;;;;;;;2.50;78.45;97915.63;5034792;28;20052;-90
2022/01/09 05:41:31;;;;;;;9.13;2.47;;;;;;;2.57;78.10;97919.41;5010945;28;20118;-90
2022/01/09 05:43:56;;;;;;;7.00;2.90;;;;;;;2.58;78.50;97915.06;5024462;28;20037;-89
2022/01/09 05:46:22;;;;;;;5.05;2.30;;;;;;;2.61;78.88;97920.03;5032176;28;20453;-89
2022/01/09 05:48:47;;;;;;;4.57;1.92;;;;;;;2.67;78.65;97920.41;5046871;28;20143;-87
2022/01/09 05:51:13;;;;;;;3.67;1.65;;;;;;;2.74;79.16;97918.16;5032023;28;20094;-88
2022/01/09 05:53:38;;;;;;;5.07;2.00;;;;;;;2.81;78.70;97914.19;5031689;28;20041;-88
2022/01/09 05:56:04;;;;;;;5.30;1.70;;;;;;;2.82;79.08;97913.28;5030510;28;20052;-89
2022/01/09 05:58:35;;;;;;;5.43;2.03;;;;;;;2.80;79.57;97912.56;5030868;28;20394;-89
2022/01/09 06:01:03;;;;;;;3.25;1.50;;;;;;;2.88;79.15;97912.81;5024091;28;20035;-88
2022/01/09 06:03:28;;;;;;;2.53;1.30;;;;;;;2.95;79.04;97914.97;5032190;28;20097;-88
2022/01/09 06:05:54;;;;;;;2.88;1.50;;;;;;;2.94;79.22;97914.13;5014221;28;20111;-88
2022/01/09 06:08:22;;;;;;;6.03;1.42;;;;;;;2.98;78.91;97906.97;5029717;28;20065;-88
2022/01/09 06:10:48;;;;;;;3.67;1.38;;;;;;;2.97;79.38;97905.34;5038406;28;20032;-87
2022/01/09 06:13:18;;;;;;;4.35;1.38;;;;;;;3.07;78.67;97907.09;5037993;28;20045;-88
2022/01/09 06:15:43;;;;;;;3.50;1.45;;;;;;;3.06;78.92;97907.22;5028533;28;20100;-87
2022/01/09 06:18:12;;;;;;;4.47;1.52;;;;;;;3.08;78.95;97913.94;5027787;28;20387;-88
2022/01/09 06:20:38;;;;;;;5.97;1.65;;;;;;;3.06;78.65;97913.22;5022432;28;20046;-87
2022/01/09 06:23:04;;;;;;;2.65;1.25;;;;;;;3.07;79.11;97896.75;5026399;28;20096;-87
2022/01/09 06:25:29;;;;;;;2.55;1.02;;;;;;;3.09;78.78;97902.63;5018754;28;20312;-88
2022/01/09 06:27:57;;;;;;;2.63;1.00;;;;;;;3.12;78.96;97904.19;5030465;28;20013;-87
2022/01/09 06:30:23;;;;;;;3.55;1.50;;;;;;;3.16;79.20;97897.84;5029840;28;20021;-87
2022/01/09 06:32:48;;;;;;;2.63;1.17;;;;;;;3.09;79.05;97907.81;5022670;28;20040;-88
2022/01/09 06:35:16;;;;;;;4.32;1.27;;;;;;;3.13;78.99;97900.66;5009651;28;20038;-88
2022/01/09 06:37:44;;;;;;;7.80;1.60;;;;;;;3.12;78.57;97909.34;5034060;28;20061;-88
2022/01/09 06:40:10;;;;;;;1.30;0.90;;;;;;;3.16;78.47;97908.19;5021229;28;20271;-87
2022/01/09 06:42:38;;;;;;;2.25;1.20;;;;;;;3.11;78.33;97905.91;5043796;28;20100;-88
2022/01/09 06:45:04;;;;;;;2.15;1.20;;;;;;;3.12;79.06;97899.00;5016247;28;20133;-88
2022/01/09 06:47:29;;;;;;;2.40;1.17;;;;;;;3.12;78.82;97896.41;5022768;28;20612;-87
2022/01/09 06:49:55;;;;;;;2.47;1.33;;;;;;;3.10;78.55;97898.28;5029122;28;20052;-88
2022/01/09 06:52:23;;;;;;;2.67;1.13;;;;;;;3.11;78.83;97903.34;5030411;28;20041;-88
2022/01/09 06:54:51;;;;;;;2.97;1.48;;;;;;;3.11;79.03;97897.34;5010466;28;20115;-88
2022/01/09 06:57:19;;;;;;;3.65;1.38;;;;;;;3.13;78.16;97901.47;5017616;28;20378;-88
2022/01/09 06:59:45;;;;;;;3.67;1.80;;;;;;;3.07;78.67;97907.09;5019220;28;20034;-88
2022/01/09 07:02:13;;;;;;;4.43;1.63;;;;;;;3.14;78.11;97908.28;5032269;28;20034;-88
2022/01/09 07:04:42;;;;;;;3.73;1.60;;;;;;;3.09;78.84;97905.22;5011226;28;20080;-88
2022/01/09 07:07:12;;;;;;;4.03;1.50;;;;;;;3.03;78.92;97908.25;5019097;28;20116;-88
2022/01/09 07:09:40;;;;;;;4.43;1.20;;;;;;;2.99;79.32;97909.44;5031357;28;20104;-88
2022/01/09 07:12:07;;;;;;;3.10;1.40;;;;;;;2.98;78.96;97912.16;5028745;28;20068;-87
2022/01/09 07:14:36;;;;;;;5.85;1.50;;;;;;;2.91;79.20;97910.00;5028979;28;20040;-87
2022/01/09 07:17:02;;;;;;;3.58;1.50;;;;;;;2.90;80.63;97923.06;5024479;28;20037;-87
2022/01/09 07:19:28;;;;;;;3.92;1.35;;;;;;;2.94;79.83;97915.91;5067223;28;20033;-88
2022/01/09 07:21:56;;;;;;;3.28;1.35;;;;;;;2.92;79.28;97919.41;5050574;28;20025;-88
2022/01/09 07:24:26;;;;;;;4.10;1.50;;;;;;;2.86;79.56;97912.13;5050419;28;20120;-87
2022/01/09 07:26:52;;;;;;;2.72;1.45;;;;;;;2.83;79.63;97921.88;5053914;28;20120;-89
2022/01/09 07:29:17;;;;;;;2.67;1.30;;;;;;;2.84;79.77;97916.56;5046368;28;20440;-88
2022/01/09 07:31:43;;;;;;;4.93;1.92;;;;;;;2.80;79.80;97920.31;5042104;28;20510;-88
2022/01/09 07:34:11;;;;;;;2.17;1.10;;;;;;;2.79;79.94;97917.84;5034903;28;20400;-87
2022/01/09 07:36:36;;;;;;;4.47;1.55;;;;;;;2.82;79.67;97918.47;5023468;28;20045;-87
2022/01/09 07:39:02;;;;;;;2.05;1.17;;;;;;;2.79;79.88;97928.22;5021113;28;20041;-87
2022/01/09 07:41:32;;;;;;;2.67;1.30;;;;;;;2.81;80.14;97923.72;5035741;28;20068;-87
2022/01/09 07:43:57;;;;;;;3.42;1.30;;;;;;;2.79;79.86;97925.63;5032632;28;20044;-87
2022/01/09 07:46:23;;;;;;;2.80;1.20;;;;;;;2.80;79.93;97935.03;5035237;28;20033;-86
2022/01/09 07:48:51;;;;;;;3.03;1.20;;;;;;;2.81;79.70;97947.84;5024771;28;20029;-87
2022/01/09 07:51:22;;;;;;;1.67;1.00;;;;;;;2.81;79.70;97942.66;5028234;28;20018;-87
2022/01/09 07:53:53;;;;;;;3.58;1.50;;;;;;;2.79;79.77;97941.97;5032600;28;20120;-87
2022/01/09 07:56:20;;;;;;;3.50;1.45;;;;;;;2.84;80.01;97942.44;5035142;28;20056;-88
2022/01/09 07:58:46;;;;;;;6.43;1.95;;;;;;;2.86;79.95;97955.28;5032354;28;20025;-86
2022/01/09 08:01:14;;;;;;;3.67;1.55;;;;;;;2.84;79.98;97941.63;5027552;28;20389;-86
2022/01/09 08:03:42;;;;;;;2.17;1.10;;;;;;;2.85;79.78;97949.25;5029926;28;20033;-88
2022/01/09 08:06:20;;;;;;;2.83;1.00;;;;;;;2.88;79.31;97949.03;5048284;28;20018;-87
2022/01/09 08:08:45;;;;;;;2.23;1.00;;;;;;;2.95;79.50;97961.53;5029522;28;20029;-88
2022/01/09 08:11:16;;;;;;;2.88;1.50;;;;;;;2.94;79.38;97957.31;5033596;28;20634;-88
2022/01/09 08:13:46;;;;;;;1.98;0.93;;;;;;;2.99;79.16;97968.97;5030839;28;20161;-88
2022/01/09 08:16:12;;;;;;;3.10;1.00;;;;;;;3.06;79.33;97967.56;5037327;28;20037;-87
2022/01/09 08:18:55;;;;;;;3.50;1.00;;;;;;;3.08;78.82;97967.47;5035714;28;20083;-85
2022/01/09 08:21:25;;;;;;;2.53;1.30;;;;;;;3.13;78.94;97963.59;5029059;28;20079;-86
2022/01/09 08:23:51;;;;;;;2.50;1.08;;;;;;;3.23;78.74;97973.28;5028474;28;20389;-87
2022/01/09 08:26:17;;;;;;;3.08;1.30;;;;;;;3.28;78.59;97973.75;5035882;28;20049;-87
2022/01/09 08:28:48;;;;;;;3.10;1.20;;;;;;;3.36;78.57;97967.06;5031307;28;20037;-87
2022/01/09 08:31:17;;;;;;;4.22;1.25;;;;;;;3.39;78.06;97966.00;5029474;28;20056;-86
2022/01/09 08:34:00;;;;;;;2.42;0.98;;;;;;;3.42;77.72;97973.56;5025991;28;20028;-86
2022/01/09 08:36:28;;;;;;;3.42;1.10;;;;;;;3.47;77.86;97980.97;5041828;28;20044;-87
2022/01/09 08:38:56;;;;;;;2.75;1.10;;;;;;;3.51;77.61;97990.16;5020448;28;20037;-87
2022/01/09 08:41:25;;;;;;;4.78;1.55;;;;;;;3.48;77.52;97983.44;5035251;28;20029;-87
2022/01/09 08:43:50;;;;;;;3.38;1.50;;;;;;;3.52;77.55;97977.13;5024095;28;20060;-87
2022/01/09 08:46:18;;;;;;;4.95;1.55;;;;;;;3.54;77.83;97977.81;5024410;28;20495;-87
2022/01/09 08:48:46;;;;;;;3.95;1.20;;;;;;;3.56;77.47;97982.88;5031210;28;20366;-86
2022/01/09 08:51:23;;;;;;;2.55;1.20;;;;;;;3.52;77.76;97976.25;5049721;28;20433;-85
2022/01/09 08:53:51;;;;;;;4.30;1.27;;;;;;;3.53;77.71;97998.66;5045081;28;20088;-86
2022/01/09 08:56:20;;;;;;;2.27;1.23;;;;;;;3.56;77.90;97996.66;5027532;28;20183;-87
2022/01/09 08:59:07;;;;;;;;;;;;;;;;;;;;;
2022/01/09 09:01:49;;;;;;;1.77;1.10;;;;;;;3.61;77.82;98001.50;5018590;28;20034;-91
2022/01/09 09:04:22;;;;;;;5.43;1.40;;;;;;;3.66;77.58;98007.16;5016824;28;20140;-90
2022/01/09 09:06:58;;;;;;;1.65;1.00;;;;;;;3.72;77.48;97998.09;4998582;28;20022;-90
2022/01/09 09:09:24;;;;;;;2.17;1.10;;;;;;;3.74;77.29;98004.78;5001361;28;20041;-89
2022/01/09 09:15:44;;;;;;;1.48;0.98;;;;;;;3.86;76.95;98018.59;4995950;28;20050;-90
2022/01/09 09:18:49;;;;;;;3.35;1.38;;;;;;;3.92;77.21;98017.31;5012376;28;20042;-89
2022/01/09 09:21:16;;;;;;;4.10;1.48;;;;;;;3.98;77.03;98019.44;5007060;28;20046;-89
2022/01/09 09:23:41;;;;;;;3.42;1.13;;;;;;;4.07;76.68;98019.53;5015169;28;20037;-89
2022/01/09 09:26:08;;;;;;;3.58;1.17;;;;;;;4.10;76.66;98021.91;5015045;28;20033;-88
2022/01/09 09:28:33;;;;;;;2.10;1.15;;;;;;;4.15;76.60;98023.31;5012421;28;20034;-88
2022/01/09 09:30:59;;;;;;;2.80;1.20;;;;;;;4.22;76.55;98032.28;5007573;28;20089;-89
2022/01/09 09:33:25;;;;;;;2.38;1.30;;;;;;;4.25;76.57;98035.44;5011241;28;20069;-88
2022/01/09 09:36:10;;;;;;;;;;;;;;;;;;;;;
2022/01/09 09:44:54;;;;;;;4.53;1.77;;;;;;;4.29;76.66;98044.63;4966908;28;20073;-91
2022/01/09 09:47:29;;;;;;;2.95;1.35;;;;;;;4.33;76.72;98050.41;4951056;28;20116;-90
2022/01/09 09:52:52;;;;;;;3.75;1.50;;;;;;;4.33;77.21;98042.63;4975006;28;20045;-88
2022/01/09 09:55:30;;;;;;;6.85;2.33;;;;;;;4.38;77.45;98042.31;4955656;28;20046;-89
2022/01/09 10:05:04;;;;;;;3.55;1.30;;;;;;;4.52;77.49;98042.84;4906463;28;20039;-90
2022/01/09 10:07:35;;;;;;;4.82;1.35;;;;;;;4.54;77.23;98058.31;4898000;29;20567;-88
2022/01/09 10:10:05;;;;;;;2.33;1.15;;;;;;;4.54;77.20;98058.31;4898277;29;20135;-90
2022/01/09 10:12:32;;;;;;;2.65;1.25;;;;;;;4.54;78.06;98059.13;4917864;29;20036;-88
2022/01/09 10:15:01;;;;;;;4.50;1.23;;;;;;;4.54;77.54;98058.31;4914676;29;20040;-90
2022/01/09 10:17:27;;;;;;;3.58;1.10;;;;;;;4.52;77.35;98062.78;4908117;29;20559;-88
2022/01/09 10:19:58;;;;;;;8.30;1.45;;;;;;;4.48;77.68;98067.38;4924420;29;20070;-89
2022/01/09 10:22:37;;;;;;;1.35;0.82;;;;;;;4.46;77.69;98069.28;4928086;29;20044;-89
2022/01/09 10:25:39;;;;;;;8.90;1.25;;;;;;;4.48;77.55;98076.94;4906449;29;20047;-90
2022/01/09 10:28:10;;;;;;;2.53;1.20;;;;;;;4.49;78.39;98086.41;4901701;29;20047;-89
2022/01/09 10:30:51;;;;;;;5.00;1.80;;;;;;;4.49;78.06;98079.44;4914036;29;20505;-88
2022/01/09 10:33:24;;;;;;;2.03;1.10;;;;;;;4.53;78.08;98082.63;4919128;29;20108;-88
2022/01/09 10:35:58;;;;;;;1.70;1.02;;;;;;;4.54;78.10;98079.91;4910673;29;20045;-88
2022/01/09 10:38:32;;;;;;;1.58;1.10;;;;;;;4.49;78.08;98089.00;4941502;28;20046;-87
2022/01/09 10:41:03;;;;;;;3.40;1.38;;;;;;;4.50;78.39;98098.41;4970774;28;20039;-87
2022/01/09 10:43:40;;;;;;;2.20;1.10;;;;;;;4.51;78.39;98095.69;4954133;28;20035;-88
2022/01/09 10:46:06;;;;;;;2.42;1.08;;;;;;;4.51;78.93;98090.50;4932115;28;20039;-88
2022/01/09 10:48:32;;;;;;;2.08;1.00;;;;;;;4.52;78.40;98105.13;4952441;28;20035;-89
2022/01/09 10:51:09;;;;;;;2.88;1.17;;;;;;;4.53;78.75;98113.75;4953358;28;20046;-86
2022/01/09 10:53:43;;;;;;;3.10;1.20;;;;;;;4.47;78.97;98115.03;4952342;28;20043;-87
2022/01/09 10:56:21;;;;;;;3.33;1.45;;;;;;;4.49;78.99;98118.34;4957240;28;20039;-89
2022/01/09 10:58:59;;;;;;;4.25;1.20;;;;;;;4.45;79.49;98119.53;4961950;28;20043;-89
2022/01/09 11:01:32;;;;;;;5.40;1.30;;;;;;;4.44;79.75;98114.44;4948237;28;20057;-88
2022/01/09 11:04:08;;;;;;;3.38;1.00;;;;;;;4.42;79.85;98122.38;4974022;28;20022;-88
2022/01/09 11:06:43;;;;;;;2.80;1.10;;;;;;;4.46;79.93;98123.78;4970091;28;20164;-87
2022/01/09 11:09:11;;;;;;;3.33;0.98;;;;;;;4.50;79.85;98126.97;4973647;28;20038;-87
2022/01/09 11:11:39;;;;;;;4.78;1.30;;;;;;;4.54;79.93;98130.97;4976499;28;20099;-87
2022/01/09 11:14:12;;;;;;;2.78;1.10;;;;;;;4.54;80.69;98141.34;5025026;28;20049;-88
2022/01/09 11:16:43;;;;;;;3.20;1.33;;;;;;;4.40;82.24;98145.00;5031175;28;20040;-88
2022/01/09 11:19:13;;;;;;;3.03;1.00;;;;;;;4.35;84.00;98150.53;5006209;28;20102;-88
2022/01/09 11:21:45;;;;;;;2.00;1.10;;;;;;;4.33;84.91;98151.59;5033856;28;20093;-87
2022/01/09 11:24:34;;;;;;;2.42;1.20;;;;;;;4.30;84.70;98150.06;5034393;28;20033;-87
2022/01/09 11:27:14;;;;;;;5.43;0.88;;;;;;;4.37;85.28;98158.19;5021792;28;20348;-88
2022/01/09 11:30:10;;;;;;;2.08;1.10;;;;;;;4.28;85.60;98157.13;5033010;28;20045;-86
2022/01/09 11:33:12;;;;;;;2.13;1.10;;;;;;;4.29;85.35;98157.94;5033207;28;20374;-86
2022/01/09 11:36:08;;;;;;;2.10;1.10;;;;;;;4.28;84.83;98157.13;4998295;28;20495;-88
2022/01/09 11:38:45;;;;;;;3.40;1.10;;;;;;;4.37;85.21;98165.97;5036738;28;20457;-86
2022/01/09 11:41:21;;;;;;;1.63;1.00;;;;;;;4.31;84.69;98174.25;5035379;28;20049;-88
2022/01/09 11:44:09;;;;;;;3.13;1.58;;;;;;;4.29;84.92;98183.88;5034449;28;20425;-85
2022/01/09 11:47:06;;;;;;;4.10;1.77;;;;;;;4.29;85.10;98182.13;5025186;28;20034;-86
2022/01/09 11:50:05;;;;;;;3.95;1.40;;;;;;;4.23;84.89;98185.19;5018384;28;20064;-87
2022/01/09 11:52:31;;;;;;;1.95;0.90;;;;;;;4.24;83.94;98188.59;5034046;28;20447;-85
2022/01/09 11:54:59;;;;;;;1.73;1.05;;;;;;;4.16;84.56;98189.19;5028110;28;20029;-86
2022/01/09 11:57:37;;;;;;;2.05;0.90;;;;;;;4.13;84.22;98195.41;5027812;28;20061;-86
2022/01/09 12:00:06;;;;;;;1.50;0.85;;;;;;;4.05;84.24;98202.94;5036380;28;20026;-85
2022/01/09 12:02:49;;;;;;;3.10;1.25;;;;;;;4.05;84.53;98210.72;5031284;28;20049;-88
2022/01/09 12:05:22;;;;;;;1.10;0.85;;;;;;;4.06;84.66;98202.00;5030731;28;20538;-88
2022/01/09 12:07:48;;;;;;;2.28;0.98;;;;;;;4.08;84.02;98215.69;5028905;28;20056;-87
2022/01/09 12:10:22;;;;;;;2.05;1.02;;;;;;;4.04;84.82;98214.25;5021857;28;20088;-87
2022/01/09 12:12:51;;;;;;;3.55;0.90;;;;;;;4.10;84.57;98212.97;5034809;28;20026;-87
2022/01/09 12:15:41;;;;;;;2.25;1.27;;;;;;;4.18;84.69;98222.78;5023996;28;20108;-87
2022/01/09 12:18:39;;;;;;;2.05;1.10;;;;;;;4.12;84.42;98221.47;5016232;28;20116;-88